Time;durP1;ratioP1;P1;durP2;ratioP2;P2;SDS_P1;SDS_P2;PMS_P1;PMS_P2;Temp;Humidity;BMP_temperature;BMP_pressure;BME280_temperature;BME280_humidity;BME280_pressure;Samples;Min_cycle;Max_cycle;Signal;HPM_P1;HPM_P2
2023/03/28 09:11:37;;;;;;;4.53;1.60;;;;;;;;;;5091045;27;20984;-77
2023/03/28 09:14:21;;;;;;;2.47;1.67;;;;;;;;;;5089478;28;20072;-77
2023/03/28 09:16:53;;;;;;;6.20;2.10;;;;;;;;;;5091084;28;20040;-77
2023/03/28 09:19:20;;;;;;;4.82;1.55;;;;;;;;;;5090798;28;20124;-77
2023/03/28 09:22:05;;;;;;;2.22;1.60;;;;;;;;;;5087770;28;20045;-78
2023/03/28 09:24:47;;;;;;;5.35;1.63;;;;;;;;;;5082704;28;20444;-78
2023/03/28 09:27:13;;;;;;;3.30;1.60;;;;;;;;;;5076259;28;20439;-78
2023/03/28 09:29:42;;;;;;;2.47;1.55;;;;;;;;;;5085569;28;20076;-78
2023/03/28 09:32:13;;;;;;;4.25;1.98;;;;;;;;;;5082632;28;20043;-78
2023/03/28 09:34:43;;;;;;;4.45;2.10;;;;;;;;;;5078284;28;20048;-78
2023/03/28 09:37:17;;;;;;;4.35;2.10;;;;;;;;;;5081308;28;20116;-79
2023/03/28 09:39:48;;;;;;;7.20;2.58;;;;;;;;;;5083392;28;20512;-77
2023/03/28 09:42:15;;;;;;;4.78;2.20;;;;;;;;;;5082690;28;20506;-77
2023/03/28 09:44:42;;;;;;;4.22;2.10;;;;;;;;;;5084426;28;20093;-77
2023/03/28 09:47:13;;;;;;;3.88;2.40;;;;;;;;;;5082028;28;20037;-77
2023/03/28 09:49:39;;;;;;;4.70;2.30;;;;;;;;;;5078116;28;20044;-77
2023/03/28 09:52:17;;;;;;;4.55;2.33;;;;;;;;;;5077441;28;20040;-78
2023/03/28 09:54:43;;;;;;;6.68;2.47;;;;;;;;;;5076983;28;20051;-79
2023/03/28 09:57:09;;;;;;;7.70;2.38;;;;;;;;;;5096313;28;20036;-77
2023/03/28 09:59:35;;;;;;;7.55;2.20;;;;;;;;;;5087728;28;20036;-77
2023/03/28 10:02:02;;;;;;;7.00;2.30;;;;;;;;;;5092101;28;20524;-78
2023/03/28 10:04:29;;;;;;;3.75;2.20;;;;;;;;;;5091689;28;20105;-78
2023/03/28 10:07:15;;;;;;;5.43;2.15;;;;;;;;;;5091287;28;20071;-78
2023/03/28 10:09:49;;;;;;;2.95;2.00;;;;;;;;;;5090895;28;20064;-78
2023/03/28 10:12:26;;;;;;;4.97;2.30;;;;;;;;;;5070736;28;20386;-77
2023/03/28 10:14:52;;;;;;;4.00;2.20;;;;;;;;;;5085315;28;20540;-78
2023/03/28 10:17:21;;;;;;;4.70;2.20;;;;;;;;;;5087439;28;20065;-78
2023/03/28 10:19:47;;;;;;;4.28;2.30;;;;;;;;;;5089559;28;20119;-78
2023/03/28 10:22:27;;;;;;;4.82;2.40;;;;;;;;;;5071373;28;20041;-79
2023/03/28 10:24:53;;;;;;;5.32;2.33;;;;;;;;;;5070872;28;20032;-76
2023/03/28 10:27:24;;;;;;;4.35;2.50;;;;;;;;;;5076057;28;20051;-78
2023/03/28 10:29:51;;;;;;;5.82;2.50;;;;;;;;;;5070682;28;20048;-77
2023/03/28 10:32:28;;;;;;;3.47;2.22;;;;;;;;;;5076409;28;20040;-78
2023/03/28 10:35:02;;;;;;;4.72;2.33;;;;;;;;;;5075771;28;20123;-77
2023/03/28 10:37:30;;;;;;;4.05;2.47;;;;;;;;;;5075897;28;20052;-77
2023/03/28 10:40:01;;;;;;;5.13;2.65;;;;;;;;;;5076037;28;20048;-77
2023/03/28 10:42:27;;;;;;;5.13;2.70;;;;;;;;;;5075624;28;20059;-77
2023/03/28 10:44:59;;;;;;;4.20;2.78;;;;;;;;;;5075737;28;20117;-77
2023/03/28 10:47:26;;;;;;;5.28;2.40;;;;;;;;;;5075654;28;20052;-77
2023/03/28 10:49:53;;;;;;;6.43;2.80;;;;;;;;;;5068587;28;20044;-77
2023/03/28 10:52:27;;;;;;;5.97;2.92;;;;;;;;;;5055243;28;20469;-77
2023/03/28 10:55:01;;;;;;;7.03;2.60;;;;;;;;;;5064690;28;20040;-77
2023/03/28 10:57:37;;;;;;;4.10;2.60;;;;;;;;;;5075937;28;20064;-77
2023/03/28 11:00:05;;;;;;;3.58;2.53;;;;;;;;;;5068416;28;20398;-77
2023/03/28 11:02:31;;;;;;;7.97;2.90;;;;;;;;;;5069176;28;20466;-82
2023/03/28 11:05:00;;;;;;;4.78;2.88;;;;;;;;;;5058457;28;20173;-77
2023/03/28 11:07:45;;;;;;;4.03;2.85;;;;;;;;;;5062646;28;20400;-77
2023/03/28 11:10:17;;;;;;;5.55;2.67;;;;;;;;;;5071021;28;20056;-77
2023/03/28 11:12:47;;;;;;;4.30;2.75;;;;;;;;;;5064355;28;20094;-77
2023/03/28 11:15:41;;;;;;;7.72;3.10;;;;;;;;;;5076962;28;20059;-77
2023/03/28 11:18:13;;;;;;;4.38;3.03;;;;;;;;;;5072235;28;20048;-77
2023/03/28 11:20:42;;;;;;;4.60;2.70;;;;;;;;;;5063219;28;20041;-77
2023/03/28 11:23:21;;;;;;;5.65;2.80;;;;;;;;;;5074956;28;20090;-77
2023/03/28 11:26:07;;;;;;;5.18;3.10;;;;;;;;;;5075390;28;20060;-77
2023/03/28 11:28:33;;;;;;;8.38;3.40;;;;;;;;;;5062205;28;20051;-77
2023/03/28 11:31:00;;;;;;;7.53;3.60;;;;;;;;;;5062632;28;20386;-77
2023/03/28 11:33:32;;;;;;;5.40;3.92;;;;;;;;;;5061592;28;20047;-77
2023/03/28 11:36:08;;;;;;;6.30;3.25;;;;;;;;;;5075492;28;20041;-77
2023/03/28 11:38:40;;;;;;;5.82;3.28;;;;;;;;;;5074860;28;20036;-77
2023/03/28 11:41:06;;;;;;;5.65;3.33;;;;;;;;;;5072189;28;20045;-77
2023/03/28 11:43:39;;;;;;;6.18;3.40;;;;;;;;;;5074365;28;20040;-77
2023/03/28 11:46:10;;;;;;;4.47;3.20;;;;;;;;;;5074600;28;20037;-77
2023/03/28 11:48:43;;;;;;;8.43;3.47;;;;;;;;;;5073980;28;20498;-77
2023/03/28 11:51:16;;;;;;;6.25;3.65;;;;;;;;;;5068808;28;20040;-77
2023/03/28 11:53:45;;;;;;;5.38;3.03;;;;;;;;;;5074717;28;20052;-77
2023/03/28 11:56:22;;;;;;;9.40;3.85;;;;;;;;;;5085352;28;20051;-77
2023/03/28 11:58:52;;;;;;;7.10;3.60;;;;;;;;;;5070448;28;20094;-77
2023/03/28 12:01:20;;;;;;;7.07;4.28;;;;;;;;;;5074168;28;20079;-77
2023/03/28 12:03:53;;;;;;;5.78;3.65;;;;;;;;;;5073336;28;20102;-77
2023/03/28 12:06:19;;;;;;;6.45;3.28;;;;;;;;;;5063927;28;20387;-80
2023/03/28 12:09:04;;;;;;;6.68;3.58;;;;;;;;;;5066238;28;20047;-79
2023/03/28 12:11:36;;;;;;;7.28;3.90;;;;;;;;;;5074295;28;20076;-78
2023/03/28 12:14:11;;;;;;;6.60;3.60;;;;;;;;;;5074185;28;20076;-78
2023/03/28 12:16:40;;;;;;;6.13;4.25;;;;;;;;;;5073945;28;20124;-78
2023/03/28 12:19:09;;;;;;;5.45;3.72;;;;;;;;;;5074337;28;20072;-78
2023/03/28 12:21:43;;;;;;;6.22;3.65;;;;;;;;;;5074022;28;20115;-78
2023/03/28 12:24:16;;;;;;;4.88;3.85;;;;;;;;;;5074154;28;20509;-78
2023/03/28 12:27:09;;;;;;;6.07;3.75;;;;;;;;;;5075768;28;20466;-81
2023/03/28 12:29:47;;;;;;;6.43;3.63;;;;;;;;;;5047587;28;20066;-78
2023/03/28 12:32:25;;;;;;;5.93;3.70;;;;;;;;;;5069786;28;20080;-78
2023/03/28 12:35:00;;;;;;;5.80;3.70;;;;;;;;;;5074473;28;20048;-78
2023/03/28 12:37:29;;;;;;;5.50;3.80;;;;;;;;;;5074196;28;20041;-78
2023/03/28 12:40:14;;;;;;;5.32;3.80;;;;;;;;;;5060542;28;20036;-78
2023/03/28 12:42:44;;;;;;;6.32;3.38;;;;;;;;;;5073992;28;20040;-78
2023/03/28 12:45:19;;;;;;;8.13;3.38;;;;;;;;;;5073175;28;20494;-78
2023/03/28 12:47:48;;;;;;;5.32;3.42;;;;;;;;;;5070491;28;20096;-78
2023/03/28 12:50:19;;;;;;;5.97;3.90;;;;;;;;;;5068582;28;20040;-78
2023/03/28 12:52:46;;;;;;;6.95;3.70;;;;;;;;;;5068512;28;20517;-78
2023/03/28 12:55:24;;;;;;;7.47;4.28;;;;;;;;;;5073197;28;20076;-78
2023/03/28 12:57:51;;;;;;;8.10;4.00;;;;;;;;;;5059009;28;20111;-78
2023/03/28 13:00:23;;;;;;;8.05;3.75;;;;;;;;;;5073811;28;20135;-78
2023/03/28 13:02:52;;;;;;;11.27;4.25;;;;;;;;;;5071562;28;20036;-78
2023/03/28 13:05:31;;;;;;;6.18;4.00;;;;;;;;;;5091910;28;20616;-78
2023/03/28 13:07:57;;;;;;;5.55;3.92;;;;;;;;;;5075520;28;20044;-78
2023/03/28 13:10:29;;;;;;;4.70;3.40;;;;;;;;;;5072552;28;20048;-78
2023/03/28 13:12:55;;;;;;;8.07;3.95;;;;;;;;;;5065233;28;20064;-77
2023/03/28 13:15:26;;;;;;;8.15;3.92;;;;;;;;;;5073944;28;20477;-78
2023/03/28 13:18:10;;;;;;;6.20;3.70;;;;;;;;;;5073860;28;20041;-77
2023/03/28 13:20:44;;;;;;;6.60;4.18;;;;;;;;;;5054605;28;20081;-78
2023/03/28 13:23:13;;;;;;;5.65;3.85;;;;;;;;;;5067305;28;20072;-77
2023/03/28 13:25:39;;;;;;;7.25;4.00;;;;;;;;;;5074159;28;20039;-78
2023/03/28 13:28:11;;;;;;;6.68;4.35;;;;;;;;;;5073620;28;20052;-78
2023/03/28 13:30:45;;;;;;;6.35;3.75;;;;;;;;;;5070546;28;20049;-78
2023/03/28 13:33:18;;;;;;;6.93;3.92;;;;;;;;;;5063540;28;20041;-77
2023/03/28 13:35:44;;;;;;;7.72;4.13;;;;;;;;;;5069330;28;20524;-78
2023/03/28 13:38:29;;;;;;;7.65;3.83;;;;;;;;;;5073974;28;20048;-78
2023/03/28 13:41:07;;;;;;;9.15;4.22;;;;;;;;;;5072949;28;20051;-78
2023/03/28 13:43:52;;;;;;;5.65;3.60;;;;;;;;;;5071782;28;20068;-77
2023/03/28 13:46:28;;;;;;;5.43;3.60;;;;;;;;;;5073609;28;20047;-79
2023/03/28 13:49:09;;;;;;;4.93;3.55;;;;;;;;;;5062003;28;20082;-77
2023/03/28 13:51:38;;;;;;;7.47;3.97;;;;;;;;;;5053292;28;20402;-79
2023/03/28 13:54:04;;;;;;;5.95;3.63;;;;;;;;;;5053265;28;20495;-78
2023/03/28 13:56:32;;;;;;;7.30;3.88;;;;;;;;;;5054490;28;20541;-78
2023/03/28 13:59:00;;;;;;;5.72;3.90;;;;;;;;;;5067567;28;20045;-78
2023/03/28 14:01:32;;;;;;;6.25;3.80;;;;;;;;;;5070574;28;20049;-77
2023/03/28 14:03:58;;;;;;;6.75;3.80;;;;;;;;;;5078236;28;20040;-78
2023/03/28 14:06:26;;;;;;;6.07;3.38;;;;;;;;;;5072289;28;20044;-78
2023/03/28 14:08:54;;;;;;;6.90;3.70;;;;;;;;;;5078058;28;20036;-77
2023/03/28 14:11:22;;;;;;;6.60;3.65;;;;;;;;;;5067474;28;20084;-78
2023/03/28 14:13:50;;;;;;;6.32;3.63;;;;;;;;;;5057350;28;20044;-78
2023/03/28 14:16:16;;;;;;;7.70;3.65;;;;;;;;;;5074681;28;20048;-78
2023/03/28 14:18:50;;;;;;;7.43;4.22;;;;;;;;;;5072821;28;20045;-78
2023/03/28 14:21:16;;;;;;;7.07;4.18;;;;;;;;;;5078867;28;20044;-78
2023/03/28 14:23:59;;;;;;;10.75;4.25;;;;;;;;;;5078542;28;20880;-77
2023/03/28 14:26:26;;;;;;;6.30;4.57;;;;;;;;;;5073049;28;20051;-78
2023/03/28 14:28:52;;;;;;;7.20;4.32;;;;;;;;;;5060817;28;20049;-79
2023/03/28 14:31:30;;;;;;;9.68;4.97;;;;;;;;;;5074521;28;20045;-80
2023/03/28 14:33:57;;;;;;;8.65;5.03;;;;;;;;;;5081906;28;20037;-79
2023/03/28 14:36:23;;;;;;;8.10;5.15;;;;;;;;;;5085643;28;20112;-79
2023/03/28 14:38:50;;;;;;;8.27;5.10;;;;;;;;;;5082657;28;20072;-78
2023/03/28 14:41:28;;;;;;;8.25;4.80;;;;;;;;;;5070528;28;20047;-78
2023/03/28 14:43:54;;;;;;;5.88;4.85;;;;;;;;;;5086252;28;20541;-78
2023/03/28 14:46:25;;;;;;;8.45;5.18;;;;;;;;;;5086512;28;20131;-78
2023/03/28 14:48:52;;;;;;;7.80;4.90;;;;;;;;;;5090716;28;20045;-78
2023/03/28 14:51:23;;;;;;;7.40;5.07;;;;;;;;;;5078414;28;20052;-78
2023/03/28 14:53:49;;;;;;;10.45;5.40;;;;;;;;;;5081585;28;20045;-78
2023/03/28 14:56:23;;;;;;;9.88;5.50;;;;;;;;;;5079128;28;20089;-79
2023/03/28 14:58:50;;;;;;;8.75;5.03;;;;;;;;;;5079383;28;20062;-79
2023/03/28 15:01:21;;;;;;;7.65;4.90;;;;;;;;;;5067782;28;20094;-78
2023/03/28 15:03:49;;;;;;;7.00;4.80;;;;;;;;;;5077187;28;20045;-79
2023/03/28 15:06:16;;;;;;;8.23;4.20;;;;;;;;;;5082678;28;20044;-80
2023/03/28 15:08:43;;;;;;;9.50;4.10;;;;;;;;;;5088178;28;20046;-78
2023/03/28 15:11:15;;;;;;;7.65;4.20;;;;;;;;;;5084770;28;20048;-81
2023/03/28 15:13:43;;;;;;;6.40;4.20;;;;;;;;;;5065832;28;20053;-78
2023/03/28 15:16:15;;;;;;;5.10;3.42;;;;;;;;;;5077295;28;20032;-79
2023/03/28 15:18:42;;;;;;;6.45;3.60;;;;;;;;;;5083738;28;20041;-77
2023/03/28 15:21:09;;;;;;;7.95;3.70;;;;;;;;;;5076507;28;20101;-77
2023/03/28 15:23:54;;;;;;;6.75;3.33;;;;;;;;;;5065474;28;20045;-77
2023/03/28 15:26:41;;;;;;;9.20;3.70;;;;;;;;;;5059009;28;20036;-77
2023/03/28 15:29:08;;;;;;;6.68;3.50;;;;;;;;;;5064477;28;20406;-77
2023/03/28 15:31:38;;;;;;;6.30;3.50;;;;;;;;;;5060217;28;20502;-76
2023/03/28 15:34:08;;;;;;;6.45;3.65;;;;;;;;;;5091096;28;20044;-77
2023/03/28 15:36:34;;;;;;;6.45;3.70;;;;;;;;;;5090994;28;20040;-77
2023/03/28 15:39:01;;;;;;;7.43;3.80;;;;;;;;;;5064745;28;20076;-78
2023/03/28 15:41:41;;;;;;;7.70;4.05;;;;;;;;;;5056255;28;20041;-78
2023/03/28 15:44:10;;;;;;;4.75;3.38;;;;;;;;;;5057264;28;20127;-78
2023/03/28 15:46:36;;;;;;;5.30;3.70;;;;;;;;;;5062760;28;20113;-77
2023/03/28 15:49:04;;;;;;;5.47;3.50;;;;;;;;;;5082248;28;20068;-80
2023/03/28 15:51:47;;;;;;;6.20;3.47;;;;;;;;;;5067185;28;20414;-77
2023/03/28 15:54:14;;;;;;;7.35;4.13;;;;;;;;;;5074542;28;20048;-78
2023/03/28 15:56:42;;;;;;;8.13;4.40;;;;;;;;;;5055634;28;20470;-77
2023/03/28 15:59:17;;;;;;;8.32;4.05;;;;;;;;;;5054539;28;20473;-77
2023/03/28 16:01:43;;;;;;;8.10;4.63;;;;;;;;;;5070036;28;20045;-77
2023/03/28 16:04:19;;;;;;;7.10;4.20;;;;;;;;;;5072325;28;20040;-77
2023/03/28 16:06:48;;;;;;;8.45;4.75;;;;;;;;;;5065421;28;20052;-77
2023/03/28 16:09:17;;;;;;;11.10;4.85;;;;;;;;;;5066434;28;20541;-77
2023/03/28 16:11:43;;;;;;;8.98;4.80;;;;;;;;;;5067088;28;20096;-77
2023/03/28 16:14:14;;;;;;;6.32;4.78;;;;;;;;;;5071590;28;20044;-77
2023/03/28 16:16:40;;;;;;;7.43;4.75;;;;;;;;;;5071283;28;20037;-77
2023/03/28 16:19:18;;;;;;;7.68;4.97;;;;;;;;;;5071999;28;20041;-77
2023/03/28 16:21:45;;;;;;;7.95;4.57;;;;;;;;;;5059343;28;20067;-77
2023/03/28 16:24:11;;;;;;;8.07;4.47;;;;;;;;;;5074453;28;20119;-77
2023/03/28 16:26:37;;;;;;;7.72;4.07;;;;;;;;;;5078911;28;20058;-77
2023/03/28 16:29:03;;;;;;;11.05;4.93;;;;;;;;;;5080864;28;20036;-81
2023/03/28 16:31:30;;;;;;;7.40;4.75;;;;;;;;;;5067496;28;20120;-77
2023/03/28 16:33:56;;;;;;;7.30;4.97;;;;;;;;;;5057572;28;20045;-77
2023/03/28 16:36:22;;;;;;;7.70;5.00;;;;;;;;;;5056510;28;20067;-77
2023/03/28 16:38:48;;;;;;;11.00;5.60;;;;;;;;;;5063135;28;20502;-77
2023/03/28 16:41:14;;;;;;;6.60;4.22;;;;;;;;;;5061818;28;20044;-77
2023/03/28 16:43:40;;;;;;;9.45;4.97;;;;;;;;;;5073310;28;20123;-78
2023/03/28 16:46:07;;;;;;;9.90;4.90;;;;;;;;;;5073739;28;20394;-78
2023/03/28 16:48:33;;;;;;;7.28;5.22;;;;;;;;;;5072702;28;20090;-77
2023/03/28 16:51:04;;;;;;;6.90;4.72;;;;;;;;;;5072877;28;20044;-77
2023/03/28 16:53:36;;;;;;;12.73;5.10;;;;;;;;;;5065786;28;20148;-77
2023/03/28 16:56:03;;;;;;;9.38;4.85;;;;;;;;;;5061296;28;20414;-77
2023/03/28 16:58:29;;;;;;;7.35;4.97;;;;;;;;;;5071721;28;20046;-77
2023/03/28 17:01:09;;;;;;;;;;;;;;;;;;;;;
2023/03/28 17:03:42;;;;;;;8.05;4.25;;;;;;;;;;5066778;28;20417;-77
2023/03/28 17:06:08;;;;;;;8.93;4.57;;;;;;;;;;5072266;28;20094;-77
2023/03/28 17:08:37;;;;;;;7.97;4.20;;;;;;;;;;5072599;28;20555;-77
2023/03/28 17:11:06;;;;;;;10.15;4.63;;;;;;;;;;5073167;28;20121;-77
2023/03/28 17:13:33;;;;;;;8.18;4.38;;;;;;;;;;5071252;28;20538;-77
2023/03/28 17:15:59;;;;;;;10.25;4.68;;;;;;;;;;5071760;28;20047;-77
2023/03/28 17:18:25;;;;;;;7.93;4.47;;;;;;;;;;5071005;28;20111;-77
2023/03/28 17:21:11;;;;;;;12.05;5.13;;;;;;;;;;5072365;28;20041;-77
2023/03/28 17:23:38;;;;;;;5.97;4.35;;;;;;;;;;5070779;28;20070;-77
2023/03/28 17:26:05;;;;;;;7.85;5.22;;;;;;;;;;5063906;28;20517;-77
2023/03/28 17:28:32;;;;;;;7.85;4.13;;;;;;;;;;5053139;28;20052;-77
2023/03/28 17:30:58;;;;;;;8.45;4.18;;;;;;;;;;5061635;28;20056;-78
2023/03/28 17:33:24;;;;;;;9.60;5.03;;;;;;;;;;5074174;28;20504;-77
2023/03/28 17:35:56;;;;;;;10.77;5.03;;;;;;;;;;5064619;28;20048;-81
2023/03/28 17:38:22;;;;;;;9.32;5.35;;;;;;;;;;5076828;28;20048;-79
2023/03/28 17:40:48;;;;;;;9.88;4.90;;;;;;;;;;5071317;28;20123;-78
2023/03/28 17:43:15;;;;;;;11.45;5.63;;;;;;;;;;5076121;28;20048;-78
2023/03/28 17:45:41;;;;;;;7.13;4.72;;;;;;;;;;5077011;28;20045;-77
2023/03/28 17:48:09;;;;;;;9.68;5.30;;;;;;;;;;5097607;28;20040;-77
2023/03/28 17:50:35;;;;;;;12.25;5.28;;;;;;;;;;5096735;28;20047;-78
2023/03/28 17:53:01;;;;;;;8.00;4.78;;;;;;;;;;5078576;28;20137;-77
2023/03/28 17:55:29;;;;;;;9.38;5.65;;;;;;;;;;5094901;28;20367;-77
2023/03/28 17:57:55;;;;;;;9.57;5.55;;;;;;;;;;5075752;28;20048;-77
2023/03/28 18:00:22;;;;;;;11.00;5.95;;;;;;;;;;5076247;28;20436;-77
2023/03/28 18:02:50;;;;;;;9.27;5.43;;;;;;;;;;5076722;28;20482;-77
2023/03/28 18:05:42;;;;;;;7.30;5.55;;;;;;;;;;5068130;28;20047;-78
2023/03/28 18:08:11;;;;;;;9.18;5.45;;;;;;;;;;5061251;28;20489;-77
2023/03/28 18:10:38;;;;;;;10.00;5.90;;;;;;;;;;5055178;28;20491;-77
2023/03/28 18:13:04;;;;;;;10.48;6.15;;;;;;;;;;5056524;28;20053;-77
2023/03/28 18:15:30;;;;;;;14.52;6.22;;;;;;;;;;5070957;28;20045;-77
2023/03/28 18:18:00;;;;;;;13.15;6.30;;;;;;;;;;5070986;28;20380;-77
2023/03/28 18:20:26;;;;;;;13.90;7.05;;;;;;;;;;5056467;28;20451;-77
2023/03/28 18:22:52;;;;;;;14.13;6.30;;;;;;;;;;5066788;28;20045;-77
2023/03/28 18:25:18;;;;;;;11.18;6.20;;;;;;;;;;5075997;28;20422;-77
2023/03/28 18:27:45;;;;;;;11.93;6.50;;;;;;;;;;5057973;28;20041;-77
2023/03/28 18:30:11;;;;;;;12.25;6.55;;;;;;;;;;5076165;28;20045;-77
2023/03/28 18:32:37;;;;;;;12.95;7.05;;;;;;;;;;5074477;28;20048;-77
2023/03/28 18:38:21;;;;;;;9.25;6.50;;;;;;;;;;5056931;28;20083;-76
2023/03/28 18:40:51;;;;;;;10.57;6.95;;;;;;;;;;5057289;28;20057;-76
2023/03/28 18:43:17;;;;;;;11.10;6.18;;;;;;;;;;5073845;28;20048;-77
2023/03/28 18:45:43;;;;;;;12.07;7.35;;;;;;;;;;5074274;28;20049;-76
2023/03/28 18:48:09;;;;;;;10.52;6.28;;;;;;;;;;5074206;28;20045;-76
2023/03/28 18:50:37;;;;;;;11.73;7.55;;;;;;;;;;5073437;28;20525;-76
2023/03/28 18:53:03;;;;;;;12.48;6.80;;;;;;;;;;5073604;28;20459;-76
2023/03/28 18:56:07;;;;;;;;;;;;;;;;;;;;;
2023/03/28 18:58:49;;;;;;;13.02;7.05;;;;;;;;;;5074081;28;20048;-76
2023/03/28 19:01:15;;;;;;;10.15;6.55;;;;;;;;;;5073206;28;20052;-76
2023/03/28 19:03:41;;;;;;;13.60;7.32;;;;;;;;;;5073733;28;20048;-76
2023/03/28 19:06:11;;;;;;;11.90;6.78;;;;;;;;;;5073493;28;20429;-76
2023/03/28 19:08:37;;;;;;;14.30;8.13;;;;;;;;;;5073070;28;20486;-75
2023/03/28 19:11:08;;;;;;;13.50;7.13;;;;;;;;;;5073067;28;20133;-75
2023/03/28 19:13:34;;;;;;;15.85;7.80;;;;;;;;;;5073021;28;20474;-75
2023/03/28 19:16:01;;;;;;;13.75;6.78;;;;;;;;;;5074967;28;20052;-76
2023/03/28 19:18:28;;;;;;;12.80;7.47;;;;;;;;;;5074894;28;20052;-76
2023/03/28 19:20:54;;;;;;;13.02;7.45;;;;;;;;;;5070778;28;20375;-75
2023/03/28 19:23:21;;;;;;;15.07;7.05;;;;;;;;;;5059395;28;20166;-76
2023/03/28 19:25:48;;;;;;;12.32;7.05;;;;;;;;;;5062577;28;20043;-75
2023/03/28 19:28:14;;;;;;;14.15;7.30;;;;;;;;;;5075592;28;20041;-75
2023/03/28 19:30:41;;;;;;;13.07;7.32;;;;;;;;;;5068619;28;20068;-75
2023/03/28 19:33:07;;;;;;;14.40;6.88;;;;;;;;;;5059709;28;20045;-75
2023/03/28 19:35:33;;;;;;;13.10;7.43;;;;;;;;;;5075125;28;20060;-75
2023/03/28 19:38:01;;;;;;;10.35;6.80;;;;;;;;;;5075737;28;20053;-75
2023/03/28 19:40:27;;;;;;;11.25;7.68;;;;;;;;;;5074400;28;20052;-75
2023/03/28 19:42:57;;;;;;;11.07;7.30;;;;;;;;;;5062632;28;20511;-75
2023/03/28 19:45:26;;;;;;;16.80;7.78;;;;;;;;;;5081126;28;20120;-75
2023/03/28 19:47:52;;;;;;;14.30;7.97;;;;;;;;;;5077160;28;20515;-75
2023/03/28 19:50:18;;;;;;;14.10;7.72;;;;;;;;;;5072608;28;20040;-76
2023/03/28 19:52:44;;;;;;;13.80;7.20;;;;;;;;;;5070751;28;20037;-76
2023/03/28 19:55:10;;;;;;;15.18;7.35;;;;;;;;;;5069125;28;20036;-76
2023/03/28 19:57:37;;;;;;;12.93;7.65;;;;;;;;;;5072443;28;20048;-76
2023/03/28 20:00:03;;;;;;;13.30;7.10;;;;;;;;;;5070383;28;20055;-76
2023/03/28 20:02:29;;;;;;;14.05;7.70;;;;;;;;;;5074474;28;20098;-76
2023/03/28 20:04:55;;;;;;;13.00;7.95;;;;;;;;;;5071272;28;20045;-76
2023/03/28 20:07:21;;;;;;;12.55;7.50;;;;;;;;;;5072616;28;20106;-76
2023/03/28 20:09:48;;;;;;;12.13;7.57;;;;;;;;;;5074061;28;20052;-76
2023/03/28 20:12:17;;;;;;;12.15;8.18;;;;;;;;;;5074161;28;20435;-75
2023/03/28 20:14:43;;;;;;;14.23;7.82;;;;;;;;;;5058750;28;20044;-75
2023/03/28 20:17:10;;;;;;;20.85;9.20;;;;;;;;;;5068091;28;20391;-75
2023/03/28 20:19:36;;;;;;;16.02;8.85;;;;;;;;;;5061001;28;20109;-76
2023/03/28 20:22:03;;;;;;;12.88;8.35;;;;;;;;;;5073779;28;20451;-76
2023/03/28 20:24:29;;;;;;;14.75;8.40;;;;;;;;;;5071009;28;20414;-75
2023/03/28 20:26:55;;;;;;;16.05;8.40;;;;;;;;;;5056327;28;20052;-75
2023/03/28 20:29:23;;;;;;;13.27;8.45;;;;;;;;;;5074469;28;20047;-76
2023/03/28 20:31:50;;;;;;;14.98;9.10;;;;;;;;;;5068811;28;20123;-76
2023/03/28 20:34:17;;;;;;;13.35;7.88;;;;;;;;;;5066748;28;20107;-78
2023/03/28 20:36:45;;;;;;;14.48;7.05;;;;;;;;;;5062783;28;20051;-77
2023/03/28 20:39:13;;;;;;;15.55;8.02;;;;;;;;;;5071391;28;20045;-78
2023/03/28 20:41:39;;;;;;;15.07;8.40;;;;;;;;;;5056035;28;20052;-76
2023/03/28 20:44:05;;;;;;;12.27;7.75;;;;;;;;;;5059552;28;20386;-76
2023/03/28 20:46:35;;;;;;;15.02;8.98;;;;;;;;;;5074070;28;20128;-76
2023/03/28 20:49:04;;;;;;;11.40;7.53;;;;;;;;;;5063770;28;20379;-76
2023/03/28 20:51:31;;;;;;;14.25;7.93;;;;;;;;;;5062400;28;20379;-76
2023/03/28 20:54:00;;;;;;;14.90;7.75;;;;;;;;;;5053131;28;20056;-76
2023/03/28 20:56:28;;;;;;;13.32;7.90;;;;;;;;;;5053786;28;20045;-76
2023/03/28 20:58:57;;;;;;;13.25;7.75;;;;;;;;;;5053183;28;20041;-76
2023/03/28 21:01:27;;;;;;;12.50;7.13;;;;;;;;;;5053514;28;20566;-75
2023/03/28 21:03:58;;;;;;;12.73;7.70;;;;;;;;;;5065884;28;20098;-75
2023/03/28 21:06:32;;;;;;;12.98;7.35;;;;;;;;;;5061548;28;20112;-76
2023/03/28 21:08:59;;;;;;;14.00;7.50;;;;;;;;;;5067045;28;20048;-75
2023/03/28 21:11:27;;;;;;;11.63;7.00;;;;;;;;;;5065766;28;20078;-75
2023/03/28 21:13:53;;;;;;;12.57;7.45;;;;;;;;;;5073635;28;20044;-75
2023/03/28 21:16:20;;;;;;;11.65;7.72;;;;;;;;;;5071540;28;20537;-75
2023/03/28 21:18:46;;;;;;;14.68;7.88;;;;;;;;;;5062098;28;20119;-75
2023/03/28 21:21:14;;;;;;;10.85;7.22;;;;;;;;;;5055754;28;20041;-75
2023/03/28 21:23:41;;;;;;;14.63;6.95;;;;;;;;;;5053377;28;20081;-75
2023/03/28 21:26:09;;;;;;;11.75;7.88;;;;;;;;;;5053311;28;20116;-76
2023/03/28 21:28:35;;;;;;;13.48;7.05;;;;;;;;;;5054213;28;20049;-75
2023/03/28 21:31:07;;;;;;;15.90;6.82;;;;;;;;;;5052684;28;20041;-75
2023/03/28 21:33:35;;;;;;;10.63;6.95;;;;;;;;;;5060690;28;20053;-76
2023/03/28 21:36:03;;;;;;;12.85;7.20;;;;;;;;;;5053105;28;20413;-76
2023/03/28 21:38:29;;;;;;;14.32;7.68;;;;;;;;;;5061234;28;20379;-75
2023/03/28 21:40:56;;;;;;;12.65;6.20;;;;;;;;;;5061343;28;20044;-76
2023/03/28 21:43:22;;;;;;;9.90;7.05;;;;;;;;;;5073563;28;20131;-76
2023/03/28 21:45:48;;;;;;;14.55;6.47;;;;;;;;;;5065292;28;20077;-76
2023/03/28 21:48:15;;;;;;;11.52;6.80;;;;;;;;;;5057990;28;20111;-76
2023/03/28 21:50:47;;;;;;;13.48;6.55;;;;;;;;;;5060273;28;20037;-76
2023/03/28 21:53:13;;;;;;;10.63;6.22;;;;;;;;;;5057097;28;20483;-76
2023/03/28 21:55:39;;;;;;;13.10;7.18;;;;;;;;;;5056891;28;20136;-76
2023/03/28 21:58:05;;;;;;;9.82;5.95;;;;;;;;;;5058999;28;20052;-76
2023/03/28 22:00:31;;;;;;;9.52;6.22;;;;;;;;;;5066785;28;20055;-76
2023/03/28 22:02:57;;;;;;;10.85;6.45;;;;;;;;;;5064462;28;20045;-76
2023/03/28 22:05:23;;;;;;;11.30;6.97;;;;;;;;;;5053313;28;20084;-76
2023/03/28 22:07:50;;;;;;;10.80;5.93;;;;;;;;;;5069594;28;20093;-76
2023/03/28 22:10:16;;;;;;;15.75;6.65;;;;;;;;;;5072398;28;21547;-76
2023/03/28 22:12:45;;;;;;;10.73;7.00;;;;;;;;;;5069539;28;20080;-76
2023/03/28 22:15:12;;;;;;;11.75;6.20;;;;;;;;;;5060044;28;20116;-76
2023/03/28 22:17:39;;;;;;;11.77;6.70;;;;;;;;;;5054273;28;20116;-75
2023/03/28 22:20:06;;;;;;;10.63;6.53;;;;;;;;;;5063018;28;20056;-76
2023/03/28 22:22:34;;;;;;;12.10;6.15;;;;;;;;;;5074731;28;20044;-76
2023/03/28 22:25:00;;;;;;;11.38;6.78;;;;;;;;;;5073262;28;20513;-76
2023/03/28 22:27:29;;;;;;;9.35;6.60;;;;;;;;;;5075714;28;20045;-76
2023/03/28 22:29:55;;;;;;;13.93;6.82;;;;;;;;;;5076136;28;20087;-76
2023/03/28 22:32:21;;;;;;;9.57;6.90;;;;;;;;;;5060978;28;20060;-76
2023/03/28 22:34:47;;;;;;;12.85;7.07;;;;;;;;;;5061271;28;20041;-76
2023/03/28 22:37:14;;;;;;;10.90;7.15;;;;;;;;;;5059633;28;20128;-76
2023/03/28 22:39:40;;;;;;;12.18;7.10;;;;;;;;;;5076538;28;20064;-76
2023/03/28 22:42:07;;;;;;;13.52;7.00;;;;;;;;;;5073672;28;20036;-75
2023/03/28 22:44:33;;;;;;;13.43;7.20;;;;;;;;;;5067752;28;20116;-76
2023/03/28 22:47:03;;;;;;;11.23;7.47;;;;;;;;;;5065497;28;20049;-76
2023/03/28 22:49:30;;;;;;;10.23;6.65;;;;;;;;;;5076132;28;20044;-76
2023/03/28 22:52:00;;;;;;;10.45;6.20;;;;;;;;;;5075742;28;20071;-76
2023/03/28 22:54:30;;;;;;;9.07;6.28;;;;;;;;;;5077725;28;20522;-76
2023/03/28 22:56:57;;;;;;;12.27;6.75;;;;;;;;;;5072967;28;20052;-76
2023/03/28 22:59:23;;;;;;;8.13;5.90;;;;;;;;;;5061776;28;20092;-76
2023/03/28 23:01:49;;;;;;;8.77;5.90;;;;;;;;;;5055923;28;20045;-76
2023/03/28 23:04:16;;;;;;;8.30;5.88;;;;;;;;;;5056253;28;20045;-76
2023/03/28 23:06:43;;;;;;;8.32;6.07;;;;;;;;;;5055010;28;20405;-76
2023/03/28 23:09:13;;;;;;;10.35;6.05;;;;;;;;;;5056649;28;20120;-76
2023/03/28 23:11:39;;;;;;;10.60;6.30;;;;;;;;;;5069474;28;20541;-76
2023/03/28 23:14:06;;;;;;;8.90;5.78;;;;;;;;;;5074570;28;20051;-76
2023/03/28 23:16:32;;;;;;;8.55;5.93;;;;;;;;;;5054978;28;20454;-76
2023/03/28 23:18:59;;;;;;;8.68;5.60;;;;;;;;;;5055629;28;20037;-76
2023/03/28 23:21:26;;;;;;;8.35;6.05;;;;;;;;;;5043567;28;20084;-76
2023/03/28 23:23:52;;;;;;;9.80;6.28;;;;;;;;;;5053647;28;20041;-76
2023/03/28 23:26:18;;;;;;;9.65;6.15;;;;;;;;;;5053917;28;20080;-76
2023/03/28 23:28:44;;;;;;;8.90;6.05;;;;;;;;;;5054846;28;20045;-75
2023/03/28 23:31:11;;;;;;;9.98;6.07;;;;;;;;;;5055432;28;20095;-75
2023/03/28 23:33:37;;;;;;;9.57;6.22;;;;;;;;;;5071793;28;20406;-75
2023/03/28 23:36:05;;;;;;;8.35;6.30;;;;;;;;;;5074194;28;20110;-75
2023/03/28 23:38:31;;;;;;;12.77;5.72;;;;;;;;;;5070662;28;20052;-75
2023/03/28 23:40:57;;;;;;;10.73;6.05;;;;;;;;;;5054490;28;20402;-75
2023/03/28 23:43:25;;;;;;;8.35;5.75;;;;;;;;;;5055043;28;20086;-75
2023/03/28 23:45:51;;;;;;;8.13;5.47;;;;;;;;;;5054849;28;20049;-75
2023/03/28 23:48:17;;;;;;;12.68;5.93;;;;;;;;;;5055097;28;20041;-75
2023/03/28 23:50:43;;;;;;;9.43;6.18;;;;;;;;;;5058206;28;20037;-75
2023/03/28 23:53:09;;;;;;;9.98;5.82;;;;;;;;;;5074793;28;20040;-75
2023/03/28 23:55:36;;;;;;;10.43;5.28;;;;;;;;;;5074393;28;20437;-75
2023/03/28 23:58:02;;;;;;;9.70;5.13;;;;;;;;;;5069777;28;20106;-75
